createdAt,value
2019-04-01T00:00:01.459Z,0.0
2019-04-01T00:10:01.570Z,0.0
2019-04-01T00:15:01.581Z,0.0
2019-04-01T00:20:01.446Z,0.0
2019-04-01T00:25:01.597Z,0.0
2019-04-01T00:30:01.461Z,0.0
2019-04-01T00:40:01.618Z,0.0
2019-04-01T00:45:06.513Z,0.0
2019-04-01T00:50:02.670Z,0.0
2019-04-01T01:00:01.537Z,0.0
2019-04-01T01:05:01.567Z,0.0
2019-04-01T01:15:01.510Z,0.0
2019-04-01T01:30:01.622Z,0.0
2019-04-01T01:35:01.659Z,0.0
2019-04-01T01:40:01.623Z,0.0
2019-04-01T01:45:01.845Z,0.0
2019-04-01T01:50:01.554Z,0.0
2019-04-01T01:55:01.579Z,0.0
2019-04-01T02:00:02.461Z,0.1
2019-04-01T02:05:01.741Z,0.1
2019-04-01T02:15:01.479Z,0.1
2019-04-01T02:20:01.454Z,0.1
2019-04-01T02:30:01.489Z,0.1
2019-04-01T02:35:02.452Z,0.2
2019-04-01T02:40:01.446Z,0.2
2019-04-01T02:45:01.583Z,0.3
2019-04-01T02:55:07.768Z,0.3
2019-04-01T03:00:01.469Z,0.3
2019-04-01T03:05:01.501Z,0.3
2019-04-01T03:10:01.479Z,0.2
2019-04-01T03:15:01.568Z,0.2
2019-04-01T03:20:01.600Z,0.1
2019-04-01T03:25:01.560Z,0.1
2019-04-01T03:30:01.623Z,0.1
2019-04-01T03:35:02.645Z,0.2
2019-04-01T03:45:01.669Z,0.2
2019-04-01T03:50:01.518Z,0.2
2019-04-01T04:00:01.818Z,0.2
2019-04-01T04:05:01.523Z,0.2
2019-04-01T04:15:01.607Z,0.3
2019-04-01T04:20:01.473Z,0.4
2019-04-01T04:25:06.567Z,0.4
2019-04-01T04:30:01.435Z,0.3
2019-04-01T04:35:01.992Z,0.3
2019-04-01T04:40:01.457Z,0.3
2019-04-01T04:45:01.611Z,0.3
2019-04-01T04:50:01.439Z,0.3
2019-04-01T04:55:01.494Z,0.3
2019-04-01T05:00:01.529Z,0.3
2019-04-01T05:10:02.069Z,0.7
2019-04-01T05:15:01.514Z,0.7
2019-04-01T05:20:01.448Z,0.7
2019-04-01T05:30:01.943Z,0.7
2019-04-01T05:35:01.555Z,0.8
2019-04-01T05:40:01.437Z,0.8
2019-04-01T05:45:01.447Z,0.7
2019-04-01T05:50:01.435Z,0.9
2019-04-01T05:55:02.509Z,0.7
2019-04-01T06:00:01.518Z,0.6
2019-04-01T06:05:02.470Z,0.6
2019-04-01T06:10:01.446Z,0.7
2019-04-01T06:15:01.504Z,0.8
2019-04-01T06:20:01.463Z,0.9
2019-04-01T06:25:01.505Z,1.0
2019-04-01T06:30:01.588Z,1.0
2019-04-01T06:35:01.468Z,0.9
2019-04-01T06:40:01.442Z,0.9
2019-04-01T06:45:01.561Z,1.1
2019-04-01T06:50:01.434Z,1.1
2019-04-01T06:55:01.491Z,1.0
2019-04-01T07:00:01.452Z,1.0
2019-04-01T07:10:01.546Z,0.8
2019-04-01T07:15:01.461Z,0.8
2019-04-01T07:30:01.455Z,0.5
2019-04-01T07:35:01.516Z,0.5
2019-04-01T07:45:01.499Z,0.6
2019-04-01T07:50:01.496Z,0.5
2019-04-01T07:55:01.546Z,0.5
2019-04-01T08:00:01.471Z,0.5
2019-04-01T08:05:01.536Z,0.7
2019-04-01T08:10:01.497Z,0.9
2019-04-01T08:15:01.581Z,1.0
2019-04-01T08:20:01.488Z,1.1
2019-04-01T08:25:01.487Z,1.2
2019-04-01T08:30:06.471Z,1.2
2019-04-01T08:35:01.910Z,1.1
2019-04-01T08:40:01.816Z,0.9
2019-04-01T08:45:01.510Z,1.0
2019-04-01T08:50:01.477Z,0.9
2019-04-01T08:55:01.543Z,0.7
2019-04-01T09:00:01.474Z,0.9
2019-04-01T09:05:01.528Z,1.3
2019-04-01T09:10:01.486Z,1.3
2019-04-01T09:15:01.499Z,1.3
2019-04-01T09:20:01.509Z,1.2
2019-04-01T09:25:01.607Z,1.0
2019-04-01T09:30:01.455Z,0.7
2019-04-01T09:35:01.573Z,0.7
2019-04-01T09:40:01.477Z,0.7
2019-04-01T09:45:01.517Z,0.9
2019-04-01T09:50:01.827Z,0.9
2019-04-01T09:55:01.605Z,0.9
2019-04-01T10:00:01.458Z,0.9
2019-04-01T10:10:01.705Z,0.9
2019-04-01T10:15:01.448Z,1.0
2019-04-01T10:21:01.565Z,1.0
2019-04-01T10:26:01.508Z,1.0
2019-04-01T10:31:01.616Z,1.0
2019-04-01T10:36:01.616Z,1.1
2019-04-01T10:41:01.478Z,1.0
2019-04-01T10:46:01.448Z,1.1
2019-04-01T10:51:01.671Z,1.1
2019-04-01T11:01:01.705Z,1.0
2019-04-01T11:06:01.793Z,1.1
2019-04-01T11:11:01.448Z,1.0
2019-04-01T11:16:01.578Z,1.2
2019-04-01T11:21:01.467Z,1.2
2019-04-01T11:26:01.512Z,1.2
2019-04-01T11:31:01.602Z,1.3
2019-04-01T11:41:06.514Z,1.5
2019-04-01T11:46:02.501Z,1.5
2019-04-01T11:51:01.558Z,1.6
2019-04-01T11:56:01.495Z,1.6
2019-04-01T12:01:01.450Z,1.8
2019-04-01T12:06:01.523Z,1.6
2019-04-01T12:11:01.565Z,1.6
2019-04-01T12:16:02.533Z,1.5
2019-04-01T12:21:01.484Z,1.3
2019-04-01T12:31:01.511Z,1.1
2019-04-01T12:36:01.473Z,1.1
2019-04-01T12:41:01.474Z,1.1
2019-04-01T12:46:01.609Z,1.2
2019-04-01T12:51:01.537Z,0.9
2019-04-01T12:56:01.465Z,0.9
2019-04-01T13:01:01.792Z,0.8
2019-04-01T13:11:01.607Z,0.7
2019-04-01T13:17:01.542Z,0.9
2019-04-01T13:22:01.476Z,0.9
2019-04-01T13:27:01.511Z,0.9
2019-04-01T13:32:01.454Z,0.9
2019-04-01T13:37:01.574Z,1.3
2019-04-01T13:42:01.485Z,1.3
2019-04-01T13:47:01.517Z,1.5
2019-04-01T13:52:04.180Z,1.6
2019-04-01T13:57:01.506Z,1.6
2019-04-01T14:02:01.471Z,1.4
2019-04-01T14:07:01.505Z,1.4
2019-04-01T14:12:01.509Z,1.4
2019-04-01T14:17:01.587Z,1.5
2019-04-01T14:22:01.482Z,1.7
2019-04-01T14:27:01.549Z,1.8
2019-04-01T14:32:01.523Z,2.3
2019-04-01T14:37:01.583Z,2.3
2019-04-01T14:42:01.485Z,2.0
2019-04-01T14:47:01.571Z,1.8
2019-04-01T14:52:01.455Z,1.6
2019-04-01T14:57:01.553Z,1.5
2019-04-01T15:02:04.106Z,1.4
2019-04-01T15:07:01.462Z,1.4
2019-04-01T15:12:01.435Z,1.6
2019-04-01T15:17:01.499Z,1.5
2019-04-01T15:22:01.486Z,1.4
2019-04-01T15:27:01.567Z,1.2
2019-04-01T15:37:01.524Z,1.3
2019-04-01T15:42:01.445Z,1.3
2019-04-01T15:47:05.050Z,1.3
2019-04-01T15:52:06.458Z,1.3
2019-04-01T15:57:01.565Z,1.3
2019-04-01T16:02:01.437Z,1.3
2019-04-01T16:07:01.505Z,1.1
2019-04-01T16:12:01.499Z,1.1
2019-04-01T16:17:01.510Z,1.2
2019-04-01T16:22:01.440Z,1.2
2019-04-01T16:27:01.493Z,1.2
2019-04-01T16:32:01.453Z,1.4
2019-04-01T16:37:01.772Z,1.4
2019-04-01T16:42:02.455Z,1.5
2019-04-01T16:47:01.612Z,1.6
2019-04-01T16:57:01.498Z,1.7
2019-04-01T17:07:01.552Z,1.9
2019-04-01T17:12:01.449Z,1.7
2019-04-01T17:17:01.580Z,1.7
2019-04-01T17:22:03.354Z,1.3
2019-04-01T17:27:01.570Z,1.3
2019-04-01T17:32:02.442Z,1.2
2019-04-01T17:37:02.501Z,1.4
2019-04-01T17:42:01.435Z,1.3
2019-04-01T17:47:01.578Z,1.4
2019-04-01T17:52:04.766Z,1.3
2019-04-01T18:02:02.081Z,1.4
2019-04-01T18:07:01.512Z,1.2
2019-04-01T18:12:01.450Z,1.0
2019-04-01T18:17:01.562Z,1.0
2019-04-01T18:22:01.533Z,0.9
2019-04-01T18:27:06.565Z,0.7
2019-04-01T18:32:02.924Z,0.6
2019-04-01T18:37:01.503Z,0.6
2019-04-01T18:42:07.488Z,0.6
2019-04-01T18:47:04.400Z,0.5
2019-04-01T18:57:04.077Z,0.5
2019-04-01T19:12:06.846Z,0.6
2019-04-01T19:17:01.591Z,0.7
2019-04-01T19:22:01.500Z,0.8
2019-04-01T19:32:01.496Z,0.8
2019-04-01T19:37:01.635Z,0.8
2019-04-01T19:42:01.513Z,0.9
2019-04-01T19:47:07.026Z,0.9
2019-04-01T19:52:01.479Z,1.0
2019-04-01T19:57:01.579Z,1.0
2019-04-01T20:02:01.440Z,0.8
2019-04-01T20:07:01.533Z,0.8
2019-04-01T20:12:01.507Z,0.8
2019-04-01T20:27:01.608Z,0.8
2019-04-01T20:32:20.061Z,0.8
2019-04-01T20:37:01.459Z,0.8
2019-04-01T20:42:01.453Z,0.7
2019-04-01T20:47:01.639Z,0.6
2019-04-01T20:52:01.471Z,0.6
2019-04-01T20:57:01.597Z,0.6
2019-04-01T21:02:01.491Z,0.6
2019-04-01T21:07:01.590Z,0.7
2019-04-01T21:12:03.448Z,0.5
2019-04-01T21:22:02.515Z,0.5
2019-04-01T21:32:01.516Z,0.6
2019-04-01T21:37:03.761Z,0.6
2019-04-01T21:42:01.468Z,0.7
2019-04-01T21:52:05.073Z,0.9
2019-04-01T21:57:01.634Z,0.8
2019-04-01T22:02:01.483Z,1.1
2019-04-01T22:12:01.515Z,1.3
2019-04-01T22:17:01.563Z,1.4
2019-04-01T22:32:01.573Z,1.4
2019-04-01T22:37:01.525Z,1.5
2019-04-01T22:42:01.480Z,1.6
2019-04-01T22:47:01.578Z,1.6
2019-04-01T22:52:01.487Z,1.9
2019-04-01T22:57:01.543Z,1.9
2019-04-01T23:02:01.447Z,1.9
2019-04-01T23:17:01.498Z,1.9
2019-04-01T23:27:01.577Z,1.4
2019-04-01T23:32:01.453Z,1.6
2019-04-01T23:37:01.574Z,1.7
2019-04-01T23:42:01.453Z,1.9
2019-04-01T23:52:01.528Z,2.1
